createdAt,value
2018-01-21T00:00:44.822Z,1.90
2018-01-21T00:03:10.793Z,2.08
2018-01-21T00:05:40.193Z,1.98
2018-01-21T00:08:06.168Z,1.15
2018-01-21T00:10:32.128Z,1.33
2018-01-21T00:12:58.075Z,1.03
2018-01-21T00:15:24.071Z,1.77
2018-01-21T00:17:51.319Z,2.42
2018-01-21T00:20:17.246Z,2.15
2018-01-21T00:22:46.536Z,1.83
2018-01-21T00:25:12.512Z,2.75
2018-01-21T00:27:41.987Z,1.70
2018-01-21T00:30:07.966Z,1.90
2018-01-21T00:32:35.528Z,1.05
2018-01-21T00:35:01.458Z,1.35
2018-01-21T00:37:30.546Z,2.27
2018-01-21T00:39:56.485Z,3.17
2018-01-21T00:42:25.962Z,1.53
2018-01-21T00:44:51.904Z,2.30
2018-01-21T00:47:18.261Z,1.37
2018-01-21T00:49:44.260Z,8.70
2018-01-21T00:52:10.174Z,1.47
2018-01-21T00:54:36.302Z,1.53
2018-01-21T00:57:02.287Z,1.50
2018-01-21T00:59:31.596Z,2.35
2018-01-21T01:01:57.578Z,2.33
2018-01-21T01:04:25.547Z,2.87
2018-01-21T01:06:51.541Z,2.62
2018-01-21T01:09:20.362Z,1.95
2018-01-21T01:11:46.342Z,2.03
2018-01-21T01:14:15.262Z,4.15
2018-01-21T01:16:41.242Z,2.03
2018-01-21T01:19:10.474Z,1.77
2018-01-21T01:21:36.379Z,2.85
2018-01-21T01:24:02.331Z,2.67
2018-01-21T01:26:28.292Z,1.33
2018-01-21T01:28:54.285Z,3.03
2018-01-21T01:31:21.542Z,1.65
2018-01-21T01:33:47.480Z,1.23
2018-01-21T01:36:17.038Z,1.40
2018-01-21T01:38:42.973Z,1.85
2018-01-21T01:41:12.953Z,2.63
2018-01-21T01:43:38.915Z,2.45
2018-01-21T01:46:05.975Z,1.47
2018-01-21T01:48:31.901Z,2.62
2018-01-21T01:51:01.161Z,2.00
2018-01-21T01:53:27.138Z,2.03
2018-01-21T01:55:55.206Z,2.45
2018-01-21T01:58:21.139Z,1.80
2018-01-21T02:00:47.058Z,1.83
2018-01-21T02:03:12.996Z,1.40
2018-01-21T02:05:38.982Z,1.47
2018-01-21T02:08:06.644Z,1.40
2018-01-21T02:10:32.596Z,2.10
2018-01-21T02:13:03.113Z,2.00
2018-01-21T02:15:29.084Z,8.00
2018-01-21T02:17:56.314Z,2.40
2018-01-21T02:20:22.256Z,2.30
2018-01-21T02:22:51.435Z,1.20
2018-01-21T02:25:17.339Z,1.02
2018-01-21T02:27:46.696Z,1.10
2018-01-21T02:30:12.632Z,1.30
2018-01-21T02:32:40.645Z,1.20
2018-01-21T02:35:06.596Z,1.02
2018-01-21T02:37:32.547Z,1.53
2018-01-21T02:39:58.485Z,1.20
2018-01-21T02:42:24.464Z,1.90
2018-01-21T02:44:52.257Z,1.80
2018-01-21T02:47:19.152Z,1.33
2018-01-21T02:49:48.355Z,1.45
2018-01-21T02:52:14.323Z,2.70
2018-01-21T02:54:43.346Z,1.55
2018-01-21T02:57:09.297Z,0.90
2018-01-21T02:59:37.246Z,1.80
2018-01-21T03:02:03.202Z,0.98
2018-01-21T03:04:31.960Z,2.20
2018-01-21T03:06:57.887Z,0.90
2018-01-21T03:09:26.078Z,1.10
2018-01-21T03:11:52.053Z,1.70
2018-01-21T03:14:18.016Z,1.17
2018-01-21T03:16:43.965Z,1.20
2018-01-21T03:19:09.921Z,1.60
2018-01-21T03:21:39.105Z,2.60
2018-01-21T03:24:05.064Z,1.23
2018-01-21T03:26:32.953Z,0.97
2018-01-21T03:28:58.924Z,2.28
2018-01-21T03:31:26.683Z,1.15
2018-01-21T03:33:56.645Z,2.55
2018-01-21T03:36:22.646Z,2.92
2018-01-21T03:38:48.573Z,1.65
2018-01-21T03:41:16.624Z,2.90
2018-01-21T03:43:42.636Z,2.12
2018-01-21T03:46:11.905Z,2.12
2018-01-21T03:48:37.892Z,2.12
2018-01-21T03:51:03.872Z,1.85
2018-01-21T03:53:29.842Z,2.05
2018-01-21T03:55:55.802Z,2.40
2018-01-21T03:58:23.752Z,2.40
2018-01-21T04:00:49.733Z,2.62
2018-01-21T04:03:17.712Z,2.25
2018-01-21T04:05:43.672Z,1.70
2018-01-21T04:08:12.813Z,3.70
2018-01-21T04:10:38.728Z,3.42
2018-01-21T04:13:07.940Z,2.67
2018-01-21T04:15:33.888Z,3.67
2018-01-21T04:18:03.235Z,3.17
2018-01-21T04:20:29.220Z,2.85
2018-01-21T04:22:58.350Z,3.78
2018-01-21T04:25:24.308Z,2.50
2018-01-21T04:27:50.275Z,3.17
2018-01-21T04:30:16.199Z,2.60
2018-01-21T04:32:42.146Z,3.47
2018-01-21T04:35:08.106Z,2.50
2018-01-21T04:37:34.019Z,2.70
2018-01-21T04:40:03.560Z,2.60
2018-01-21T04:42:29.575Z,2.85
2018-01-21T04:44:57.438Z,3.72
2018-01-21T04:47:24.368Z,4.18
2018-01-21T04:49:53.283Z,2.47
2018-01-21T04:52:19.218Z,3.62
2018-01-21T04:54:47.134Z,4.70
2018-01-21T04:57:13.032Z,3.10
2018-01-21T04:59:41.774Z,2.80
2018-01-21T05:02:07.724Z,3.65
2018-01-21T05:04:33.669Z,2.50
2018-01-21T05:06:59.646Z,2.73
2018-01-21T05:09:25.601Z,2.28
2018-01-21T05:11:53.393Z,3.17
2018-01-21T05:14:19.370Z,2.05
2018-01-21T05:16:48.213Z,2.95
2018-01-21T05:19:14.172Z,1.80
2018-01-21T05:21:42.645Z,4.70
2018-01-21T05:24:08.635Z,4.30
2018-01-21T05:26:38.083Z,3.47
2018-01-21T05:29:04.050Z,4.53
2018-01-21T05:31:32.084Z,4.00
2018-01-21T05:33:58.009Z,3.25
2018-01-21T05:36:27.557Z,4.00
2018-01-21T05:38:53.497Z,3.92
2018-01-21T05:41:19.470Z,4.33
2018-01-21T05:43:45.440Z,3.62
2018-01-21T05:46:11.377Z,5.05
2018-01-21T05:48:39.163Z,5.70
2018-01-21T05:51:05.180Z,5.25
2018-01-21T05:53:34.351Z,3.12
2018-01-21T05:56:00.267Z,3.97
2018-01-21T05:58:28.130Z,3.17
2018-01-21T06:00:54.135Z,3.58
2018-01-21T06:03:23.763Z,3.58
2018-01-21T06:05:49.733Z,3.50
2018-01-21T06:08:18.485Z,6.22
2018-01-21T06:10:44.431Z,2.92
2018-01-21T06:13:12.125Z,3.57
2018-01-21T06:15:38.055Z,2.90
2018-01-21T06:18:04.044Z,5.57
2018-01-21T06:20:30.014Z,2.95
2018-01-21T06:22:55.945Z,5.12
2018-01-21T06:25:25.527Z,2.83
2018-01-21T06:27:51.566Z,3.12
2018-01-21T06:30:20.582Z,4.35
2018-01-21T06:32:46.549Z,3.37
2018-01-21T06:35:14.083Z,3.10
2018-01-21T06:37:40.005Z,3.17
2018-01-21T06:40:09.496Z,4.50
2018-01-21T06:42:35.541Z,4.00
2018-01-21T06:45:04.586Z,4.12
2018-01-21T06:47:32.905Z,6.82
2018-01-21T06:49:58.869Z,3.85
2018-01-21T06:52:24.797Z,3.92
2018-01-21T06:54:50.735Z,4.43
2018-01-21T06:57:16.708Z,3.60
2018-01-21T06:59:42.670Z,4.10
2018-01-21T07:02:09.817Z,5.03
2018-01-21T07:04:35.826Z,4.18
2018-01-21T07:07:04.169Z,4.95
2018-01-21T07:09:30.132Z,10.48
2018-01-21T07:12:00.403Z,4.20
2018-01-21T07:14:26.336Z,4.07
2018-01-21T07:16:54.134Z,4.40
2018-01-21T07:19:20.136Z,3.53
2018-01-21T07:21:49.818Z,4.00
2018-01-21T07:24:15.829Z,5.35
2018-01-21T07:26:44.900Z,6.97
2018-01-21T07:29:10.863Z,2.95
2018-01-21T07:31:36.782Z,3.97
2018-01-21T07:34:02.791Z,3.40
2018-01-21T07:36:28.760Z,2.92
2018-01-21T07:38:55.243Z,4.82
2018-01-21T07:41:21.228Z,4.85
2018-01-21T07:43:50.345Z,4.93
2018-01-21T07:46:16.349Z,3.83
2018-01-21T07:48:44.010Z,3.17
2018-01-21T07:51:10.000Z,5.03
2018-01-21T07:53:41.065Z,4.75
2018-01-21T07:56:07.033Z,4.65
2018-01-21T07:58:34.558Z,4.03
2018-01-21T08:01:00.492Z,7.95
2018-01-21T08:03:29.530Z,7.00
2018-01-21T08:05:55.491Z,6.30
2018-01-21T08:08:21.443Z,5.20
2018-01-21T08:10:47.418Z,4.10
2018-01-21T08:13:13.399Z,2.97
2018-01-21T08:15:40.619Z,3.87
2018-01-21T08:18:06.575Z,4.18
2018-01-21T08:20:35.981Z,4.50
2018-01-21T08:23:01.961Z,4.75
2018-01-21T08:25:29.633Z,9.95
2018-01-21T08:27:55.602Z,4.37
2018-01-21T08:30:24.755Z,7.90
2018-01-21T08:32:50.712Z,5.07
2018-01-21T08:35:25.137Z,4.10
2018-01-21T08:37:57.389Z,4.80
2018-01-21T08:40:29.522Z,8.63
2018-01-21T08:42:55.508Z,5.03
2018-01-21T08:45:21.446Z,3.90
2018-01-21T08:47:47.418Z,5.50
2018-01-21T08:50:13.347Z,4.30
2018-01-21T08:52:39.292Z,4.40
2018-01-21T08:55:05.294Z,7.80
2018-01-21T08:57:31.289Z,6.50
2018-01-21T08:59:57.240Z,6.65
2018-01-21T09:02:23.201Z,9.70
2018-01-21T09:04:49.146Z,4.93
2018-01-21T09:07:15.090Z,14.63
2018-01-21T09:09:41.039Z,4.07
2018-01-21T09:12:07.014Z,9.80
2018-01-21T09:14:32.969Z,5.85
2018-01-21T09:16:58.934Z,6.80
2018-01-21T09:19:24.889Z,6.63
2018-01-21T09:21:50.863Z,6.97
2018-01-21T09:24:16.821Z,5.93
2018-01-21T09:26:42.765Z,3.70
2018-01-21T09:29:11.245Z,4.37
2018-01-21T09:31:37.216Z,5.90
2018-01-21T09:34:05.715Z,7.50
2018-01-21T09:36:31.661Z,3.58
2018-01-21T09:39:00.895Z,6.20
2018-01-21T09:41:26.874Z,6.85
2018-01-21T09:43:54.638Z,3.92
2018-01-21T09:46:20.591Z,5.95
2018-01-21T09:48:50.232Z,7.10
2018-01-21T09:51:16.221Z,7.85
2018-01-21T09:53:45.370Z,5.75
2018-01-21T09:56:11.342Z,5.85
2018-01-21T09:58:37.357Z,8.38
2018-01-21T10:01:03.353Z,9.60
2018-01-21T10:03:29.295Z,8.25
2018-01-21T10:05:56.764Z,4.00
2018-01-21T10:08:22.724Z,4.57
2018-01-21T10:10:52.486Z,4.80
2018-01-21T10:13:18.439Z,5.00
2018-01-21T10:15:45.450Z,4.53
2018-01-21T10:18:11.424Z,5.62
2018-01-21T10:20:40.783Z,4.78
2018-01-21T10:23:06.735Z,5.05
2018-01-21T10:25:35.845Z,3.67
2018-01-21T10:28:01.784Z,3.75
2018-01-21T10:30:30.407Z,9.93
2018-01-21T10:32:56.357Z,5.03
2018-01-21T10:35:22.281Z,5.90
2018-01-21T10:37:48.232Z,4.63
2018-01-21T10:40:14.180Z,2.17
2018-01-21T10:42:41.378Z,2.60
2018-01-21T10:45:07.325Z,8.23
2018-01-21T10:47:37.347Z,5.13
2018-01-21T10:50:03.302Z,3.95
2018-01-21T10:52:32.630Z,3.00
2018-01-21T10:54:58.607Z,5.97
2018-01-21T10:57:25.531Z,6.73
2018-01-21T10:59:51.460Z,5.05
2018-01-21T11:02:20.650Z,9.30
2018-01-21T11:04:46.611Z,5.75
2018-01-21T11:07:16.412Z,4.30
2018-01-21T11:09:42.349Z,5.85
2018-01-21T11:12:08.308Z,3.87
2018-01-21T11:14:34.229Z,3.80
2018-01-21T11:17:00.162Z,2.70
2018-01-21T11:19:26.748Z,5.20
2018-01-21T11:21:52.693Z,2.83
2018-01-21T11:24:21.937Z,7.70
2018-01-21T11:26:47.900Z,5.55
2018-01-21T11:29:17.077Z,5.37
2018-01-21T11:31:43.041Z,5.15
2018-01-21T11:34:10.989Z,6.63
2018-01-21T11:36:36.976Z,7.18
2018-01-21T11:39:06.202Z,3.75
2018-01-21T11:41:32.193Z,5.95
2018-01-21T11:43:59.986Z,3.17
2018-01-21T11:46:25.955Z,4.47
2018-01-21T11:48:51.898Z,3.87
2018-01-21T11:51:17.838Z,5.83
2018-01-21T11:53:43.785Z,3.37
2018-01-21T11:56:12.985Z,2.93
2018-01-21T11:58:38.958Z,3.30
2018-01-21T12:01:08.493Z,4.50
2018-01-21T12:03:34.437Z,3.28
2018-01-21T12:06:01.964Z,2.23
2018-01-21T12:08:27.909Z,4.75
2018-01-21T12:10:57.096Z,5.33
2018-01-21T12:13:23.064Z,3.83
2018-01-21T12:15:51.994Z,3.00
2018-01-21T12:18:17.986Z,4.15
2018-01-21T12:20:47.196Z,9.07
2018-01-21T12:23:13.120Z,3.47
2018-01-21T12:25:39.052Z,2.90
2018-01-21T12:28:05.012Z,1.93
2018-01-21T12:30:31.004Z,2.90
2018-01-21T12:32:57.244Z,3.37
2018-01-21T12:35:23.237Z,3.12
2018-01-21T12:37:53.200Z,4.22
2018-01-21T12:40:19.121Z,2.70
2018-01-21T12:42:48.410Z,2.70
2018-01-21T12:45:14.336Z,4.03
2018-01-21T12:47:41.911Z,3.10
2018-01-21T12:50:07.842Z,5.35
2018-01-21T12:52:36.956Z,4.20
2018-01-21T12:55:02.916Z,1.77
2018-01-21T12:57:30.553Z,3.43
2018-01-21T12:59:56.582Z,3.15
2018-01-21T13:02:22.530Z,3.92
2018-01-21T13:04:48.474Z,3.13
2018-01-21T13:07:14.442Z,3.67
2018-01-21T13:09:44.116Z,4.30
2018-01-21T13:12:10.097Z,5.55
2018-01-21T13:14:37.897Z,10.40
2018-01-21T13:17:03.806Z,5.62
2018-01-21T13:19:31.824Z,5.73
2018-01-21T13:21:57.758Z,3.50
2018-01-21T13:24:27.201Z,3.87
2018-01-21T13:26:53.194Z,6.97
2018-01-21T13:29:22.842Z,2.28
2018-01-21T13:31:48.771Z,2.33
2018-01-21T13:34:16.554Z,5.23
2018-01-21T13:36:42.510Z,3.97
2018-01-21T13:39:08.470Z,2.67
2018-01-21T13:41:34.395Z,6.23
2018-01-21T13:44:00.350Z,4.37
2018-01-21T13:46:29.758Z,3.63
2018-01-21T13:48:55.748Z,5.22
2018-01-21T13:51:23.361Z,4.53
2018-01-21T13:53:49.334Z,3.37
2018-01-21T13:56:17.025Z,3.30
2018-01-21T13:58:42.993Z,4.45
2018-01-21T14:01:12.019Z,5.50
2018-01-21T14:03:38.026Z,4.07
2018-01-21T14:06:06.610Z,3.03
2018-01-21T14:08:32.572Z,2.03
2018-01-21T14:11:02.340Z,2.07
2018-01-21T14:13:28.335Z,2.97
2018-01-21T14:15:54.256Z,3.08
2018-01-21T14:18:20.218Z,4.00
2018-01-21T14:20:46.148Z,9.03
2018-01-21T14:23:14.144Z,3.17
2018-01-21T14:25:40.104Z,5.30
2018-01-21T14:28:07.762Z,4.00
2018-01-21T14:30:33.726Z,5.95
2018-01-21T14:33:06.472Z,2.17
2018-01-21T14:35:32.388Z,2.37
2018-01-21T14:37:58.353Z,1.83
2018-01-21T14:40:24.332Z,7.97
2018-01-21T14:42:53.537Z,5.20
2018-01-21T14:45:19.512Z,2.35
2018-01-21T14:47:46.740Z,4.13
2018-01-21T14:50:12.681Z,5.62
2018-01-21T14:52:38.730Z,11.10
2018-01-21T14:55:04.745Z,4.50
2018-01-21T14:57:30.728Z,5.62
2018-01-21T14:59:58.361Z,3.58
2018-01-21T15:02:24.328Z,4.15
2018-01-21T15:04:54.133Z,6.30
2018-01-21T15:07:20.051Z,3.72
2018-01-21T15:09:47.983Z,5.47
2018-01-21T15:12:13.921Z,4.53
2018-01-21T15:14:43.523Z,7.27
2018-01-21T15:17:09.446Z,6.40
2018-01-21T15:19:37.330Z,6.23
2018-01-21T15:22:03.289Z,5.70
2018-01-21T15:24:31.823Z,9.43
2018-01-21T15:26:57.766Z,12.77
2018-01-21T15:29:23.716Z,10.23
2018-01-21T15:31:49.649Z,10.73
2018-01-21T15:34:15.594Z,4.50
2018-01-21T15:36:45.146Z,3.20
2018-01-21T15:39:11.087Z,6.97
2018-01-21T15:41:40.241Z,7.00
2018-01-21T15:44:06.208Z,6.72
2018-01-21T15:46:34.048Z,6.93
2018-01-21T15:49:00.069Z,5.60
2018-01-21T15:51:27.917Z,4.78
2018-01-21T15:53:53.885Z,6.80
2018-01-21T15:56:22.988Z,13.82
2018-01-21T15:58:48.974Z,6.00
2018-01-21T16:01:18.252Z,9.68
2018-01-21T16:03:44.214Z,14.07
2018-01-21T16:06:10.136Z,6.43
2018-01-21T16:08:36.127Z,7.77
2018-01-21T16:11:02.085Z,5.07
2018-01-21T16:13:29.361Z,5.37
2018-01-21T16:15:55.356Z,9.00
2018-01-21T16:18:24.684Z,5.43
2018-01-21T16:20:50.640Z,4.78
2018-01-21T16:23:18.481Z,4.40
2018-01-21T16:25:44.433Z,7.32
2018-01-21T16:28:14.648Z,11.00
2018-01-21T16:30:40.596Z,6.20
2018-01-21T16:33:08.124Z,3.67
2018-01-21T16:35:34.142Z,10.70
2018-01-21T16:38:15.746Z,13.80
2018-01-21T16:40:41.730Z,16.77
2018-01-21T16:43:07.730Z,16.37
2018-01-21T16:45:33.702Z,15.95
2018-01-21T16:47:59.681Z,12.27
2018-01-21T16:50:25.650Z,8.00
2018-01-21T16:52:51.604Z,11.50
2018-01-21T16:55:17.521Z,8.10
2018-01-21T16:57:43.464Z,7.50
2018-01-21T17:00:09.396Z,12.07
2018-01-21T17:02:35.370Z,8.83
2018-01-21T17:05:01.349Z,7.05
2018-01-21T17:07:27.322Z,11.55
2018-01-21T17:09:53.281Z,7.73
2018-01-21T17:12:19.254Z,7.87
2018-01-21T17:14:48.465Z,6.55
2018-01-21T17:17:14.459Z,5.62
2018-01-21T17:19:40.434Z,5.35
2018-01-21T17:22:06.400Z,5.13
2018-01-21T17:24:32.358Z,5.73
2018-01-21T17:27:01.654Z,5.77
2018-01-21T17:29:27.624Z,5.25
2018-01-21T17:31:54.923Z,3.50
2018-01-21T17:34:20.912Z,5.20
2018-01-21T17:36:50.404Z,6.32
2018-01-21T17:39:16.330Z,5.47
2018-01-21T17:41:45.625Z,8.80
2018-01-21T17:44:11.597Z,5.07
2018-01-21T17:46:38.749Z,10.60
2018-01-21T17:49:04.749Z,9.80
2018-01-21T17:51:33.914Z,5.85
2018-01-21T17:53:59.860Z,13.75
2018-01-21T17:56:25.814Z,10.33
2018-01-21T17:58:51.785Z,9.18
2018-01-21T18:01:17.774Z,4.17
2018-01-21T18:03:46.748Z,5.07
2018-01-21T18:06:12.714Z,6.93
2018-01-21T18:08:40.044Z,4.30
2018-01-21T18:11:06.918Z,4.65
2018-01-21T18:13:34.729Z,5.28
2018-01-21T18:16:00.697Z,5.60
2018-01-21T18:18:28.912Z,10.35
2018-01-21T18:20:54.876Z,6.97
2018-01-21T18:23:24.351Z,7.40
2018-01-21T18:25:50.401Z,11.88
2018-01-21T18:28:19.864Z,8.02
2018-01-21T18:30:45.798Z,7.18
2018-01-21T18:33:11.798Z,7.93
2018-01-21T18:35:37.700Z,6.93
2018-01-21T18:38:03.711Z,7.70
2018-01-21T18:40:30.632Z,5.82
2018-01-21T18:42:56.593Z,8.32
2018-01-21T18:45:25.687Z,10.53
2018-01-21T18:47:51.682Z,7.57
2018-01-21T18:50:19.565Z,9.30
2018-01-21T18:52:45.581Z,8.77
2018-01-21T18:55:14.803Z,8.93
2018-01-21T18:57:40.804Z,8.32
2018-01-21T19:00:09.392Z,12.45
2018-01-21T19:02:35.364Z,24.05
2018-01-21T19:05:04.566Z,9.68
2018-01-21T19:07:30.543Z,7.62
2018-01-21T19:09:56.527Z,9.90
2018-01-21T19:12:22.487Z,14.18
2018-01-21T19:14:48.427Z,10.87
2018-01-21T19:17:16.108Z,5.30
2018-01-21T19:19:42.058Z,6.03
2018-01-21T19:22:11.151Z,6.03
2018-01-21T19:24:37.116Z,6.28
2018-01-21T19:27:05.306Z,8.25
2018-01-21T19:29:31.321Z,5.82
2018-01-21T19:31:59.844Z,9.80
2018-01-21T19:34:25.802Z,10.90
2018-01-21T19:36:54.343Z,9.57
2018-01-21T19:42:25.967Z,11.18
2018-01-21T19:44:51.927Z,9.65
2018-01-21T19:47:19.133Z,6.77
2018-01-21T19:49:45.193Z,5.28
2018-01-21T19:52:11.137Z,8.70
2018-01-21T19:54:37.094Z,9.93
2018-01-21T19:57:03.040Z,7.00
2018-01-21T19:59:29.060Z,13.70
2018-01-21T20:01:55.025Z,13.88
2018-01-21T20:04:21.023Z,8.25
2018-01-21T20:06:46.993Z,11.00
2018-01-21T20:09:12.925Z,9.40
2018-01-21T20:11:38.858Z,13.53
2018-01-21T20:14:04.782Z,15.10
2018-01-21T20:16:30.735Z,16.03
2018-01-21T20:18:56.666Z,5.47
2018-01-21T20:21:22.626Z,9.97
2018-01-21T20:23:48.567Z,10.63
2018-01-21T20:26:14.529Z,7.97
2018-01-21T20:28:40.510Z,6.70
2018-01-21T20:31:06.534Z,9.63
2018-01-21T20:33:32.497Z,17.12
2018-01-21T20:35:58.456Z,16.52
2018-01-21T20:38:24.358Z,9.80
2018-01-21T20:40:50.326Z,10.23
2018-01-21T20:43:16.342Z,10.50
2018-01-21T20:45:42.361Z,9.25
2018-01-21T20:48:08.342Z,13.55
2018-01-21T20:50:34.333Z,9.18
2018-01-21T20:55:58.984Z,10.35
2018-01-21T20:58:24.895Z,11.63
2018-01-21T21:00:50.867Z,10.23
2018-01-21T21:03:16.829Z,7.28
2018-01-21T21:05:42.778Z,10.47
2018-01-21T21:08:08.709Z,6.03
2018-01-21T21:10:34.707Z,6.80
2018-01-21T21:13:00.614Z,8.40
2018-01-21T21:15:26.600Z,15.40
2018-01-21T21:17:52.533Z,12.70
2018-01-21T21:20:18.458Z,10.27
2018-01-21T21:22:44.385Z,17.80
2018-01-21T21:25:10.329Z,16.33
2018-01-21T21:27:36.289Z,16.67
2018-01-21T21:30:02.318Z,12.40
2018-01-21T21:32:28.336Z,10.98
2018-01-21T21:34:54.331Z,13.45
2018-01-21T21:37:20.348Z,18.70
2018-01-21T21:39:46.356Z,10.52
2018-01-21T21:42:12.344Z,9.10
2018-01-21T21:44:38.289Z,14.57
2018-01-21T21:47:04.306Z,9.00
2018-01-21T21:49:30.284Z,11.25
2018-01-21T21:51:56.242Z,8.85
2018-01-21T21:54:22.212Z,27.50
2018-01-21T21:56:48.132Z,15.57
2018-01-21T21:59:14.060Z,8.30
2018-01-21T22:01:40.075Z,10.03
2018-01-21T22:04:06.004Z,13.25
2018-01-21T22:06:31.958Z,8.53
2018-01-21T22:08:57.900Z,8.60
2018-01-21T22:11:23.856Z,13.50
2018-01-21T22:13:49.848Z,9.73
2018-01-21T22:16:15.806Z,13.43
2018-01-21T22:18:41.756Z,10.77
2018-01-21T22:21:07.736Z,12.07
2018-01-21T22:23:33.729Z,9.65
2018-01-21T22:25:59.680Z,17.12
2018-01-21T22:28:25.622Z,12.03
2018-01-21T22:30:52.289Z,10.77
2018-01-21T22:33:18.247Z,10.25
2018-01-21T22:35:48.046Z,12.70
2018-01-21T22:38:13.973Z,9.90
2018-01-21T22:40:41.909Z,15.97
2018-01-21T22:43:08.000Z,20.30
2018-01-21T22:45:36.845Z,14.50
2018-01-21T22:48:02.838Z,6.60
2018-01-21T22:50:28.795Z,8.80
2018-01-21T22:52:54.722Z,7.20
2018-01-21T22:55:20.675Z,8.23
2018-01-21T22:57:48.402Z,8.50
2018-01-21T23:00:14.338Z,6.35
2018-01-21T23:02:42.251Z,7.80
2018-01-21T23:05:08.215Z,7.70
2018-01-21T23:07:37.956Z,6.80
2018-01-21T23:10:03.912Z,8.30
2018-01-21T23:12:33.079Z,8.30
2018-01-21T23:14:59.019Z,10.30
2018-01-21T23:17:26.992Z,10.60
2018-01-21T23:19:52.934Z,7.43
2018-01-21T23:22:22.014Z,11.37
2018-01-21T23:24:47.952Z,12.15
2018-01-21T23:27:13.876Z,16.17
2018-01-21T23:29:39.810Z,10.67
2018-01-21T23:32:05.789Z,13.50
2018-01-21T23:34:32.934Z,9.85
2018-01-21T23:36:58.900Z,10.13
2018-01-21T23:39:27.853Z,17.92
2018-01-21T23:41:53.822Z,11.55
2018-01-21T23:44:23.497Z,11.25
2018-01-21T23:46:49.454Z,12.82
2018-01-21T23:49:17.394Z,12.90
2018-01-21T23:51:43.452Z,11.35
2018-01-21T23:54:12.470Z,13.52
2018-01-21T23:56:38.444Z,10.90
2018-01-21T23:59:07.107Z,13.57
